createdAt,value
2022-09-07T00:01:51.617Z,99.90
2022-09-07T00:04:18.523Z,99.90
2022-09-07T00:06:45.364Z,99.90
2022-09-07T00:09:12.296Z,99.90
2022-09-07T00:11:39.070Z,99.90
2022-09-07T00:14:07.637Z,99.90
2022-09-07T00:16:34.452Z,99.90
2022-09-07T00:19:02.133Z,99.90
2022-09-07T00:21:29.033Z,99.90
2022-09-07T00:23:55.986Z,99.90
2022-09-07T00:26:23.771Z,99.90
2022-09-07T00:28:50.791Z,99.90
2022-09-07T00:31:19.214Z,99.90
2022-09-07T00:33:46.202Z,99.90
2022-09-07T00:36:13.003Z,99.90
2022-09-07T00:38:39.865Z,99.90
2022-09-07T00:41:06.718Z,99.90
2022-09-07T00:43:43.284Z,99.90
2022-09-07T00:46:15.900Z,99.90
2022-09-07T00:48:47.528Z,99.90
2022-09-07T00:51:19.132Z,99.90
2022-09-07T00:54:06.162Z,99.90
2022-09-07T00:56:33.623Z,99.90
2022-09-07T00:59:00.612Z,99.90
2022-09-07T01:01:27.630Z,99.90
2022-09-07T01:03:55.269Z,99.90
2022-09-07T01:06:23.909Z,99.90
2022-09-07T01:08:50.855Z,99.90
2022-09-07T01:11:18.489Z,99.90
2022-09-07T01:13:45.372Z,99.90
2022-09-07T01:16:31.550Z,99.90
2022-09-07T01:19:30.826Z,99.90
2022-09-07T01:22:09.615Z,99.90
2022-09-07T01:24:48.509Z,99.90
2022-09-07T01:27:27.501Z,99.90
2022-09-07T01:30:00.245Z,99.90
2022-09-07T01:32:33.020Z,99.90
2022-09-07T01:34:59.828Z,99.90
2022-09-07T01:37:48.329Z,99.90
2022-09-07T01:40:35.458Z,99.90
2022-09-07T01:43:04.575Z,99.90
2022-09-07T01:45:32.299Z,99.90
2022-09-07T01:47:59.726Z,99.90
2022-09-07T01:50:40.977Z,99.90
2022-09-07T01:53:17.953Z,99.90
2022-09-07T01:55:46.592Z,99.90
2022-09-07T01:58:48.841Z,99.90
2022-09-07T02:01:20.554Z,99.90
2022-09-07T02:03:48.972Z,99.90
2022-09-07T02:06:20.265Z,99.90
2022-09-07T02:08:49.813Z,99.90
2022-09-07T02:11:18.126Z,99.90
2022-09-07T02:13:49.583Z,99.90
2022-09-07T02:16:34.562Z,99.90
2022-09-07T02:19:02.098Z,99.90
2022-09-07T02:21:33.837Z,99.90
2022-09-07T02:24:05.416Z,99.90
2022-09-07T02:26:32.195Z,99.90
2022-09-07T02:28:58.984Z,99.90
2022-09-07T02:31:28.716Z,99.90
2022-09-07T02:33:55.617Z,99.90
2022-09-07T02:36:23.749Z,99.90
2022-09-07T02:38:50.521Z,99.90
2022-09-07T02:41:36.138Z,99.90
2022-09-07T02:44:04.094Z,99.90
2022-09-07T02:46:30.913Z,99.90
2022-09-07T02:48:57.914Z,99.90
2022-09-07T02:51:27.614Z,99.90
2022-09-07T02:54:13.144Z,99.90
2022-09-07T02:56:46.008Z,99.90
2022-09-07T02:59:12.812Z,99.90
2022-09-07T03:01:45.416Z,99.90
2022-09-07T03:04:26.131Z,99.90
2022-09-07T03:06:53.884Z,99.90
2022-09-07T03:09:21.345Z,99.90
2022-09-07T03:11:48.147Z,99.90
2022-09-07T03:14:22.036Z,99.90
2022-09-07T03:16:49.648Z,99.90
2022-09-07T03:19:16.440Z,99.90
2022-09-07T03:21:43.289Z,99.90
2022-09-07T03:24:10.121Z,99.90
2022-09-07T03:26:38.929Z,99.90
2022-09-07T03:29:05.936Z,99.90
2022-09-07T03:31:33.245Z,99.90
2022-09-07T03:34:00.014Z,99.90
2022-09-07T03:36:26.852Z,99.90
2022-09-07T03:38:53.632Z,99.90
2022-09-07T03:41:20.441Z,99.90
2022-09-07T03:43:47.855Z,99.90
2022-09-07T03:46:19.314Z,99.90
2022-09-07T03:48:46.791Z,99.90
2022-09-07T03:51:14.518Z,99.90
2022-09-07T03:53:41.959Z,99.90
2022-09-07T03:56:12.842Z,99.90
2022-09-07T03:58:39.647Z,99.90
2022-09-07T04:01:07.715Z,99.90
2022-09-07T04:03:34.636Z,99.90
2022-09-07T04:06:01.642Z,99.90
2022-09-07T04:08:28.952Z,99.90
2022-09-07T04:10:56.657Z,99.90
2022-09-07T04:13:24.025Z,99.90
2022-09-07T04:15:53.771Z,99.90
2022-09-07T04:18:21.329Z,99.90
2022-09-07T04:20:49.957Z,99.90
2022-09-07T04:23:20.072Z,99.90
2022-09-07T04:25:47.594Z,99.90
2022-09-07T04:28:15.230Z,99.90
2022-09-07T04:30:42.080Z,99.90
2022-09-07T04:33:09.772Z,99.90
2022-09-07T04:35:37.050Z,99.90
2022-09-07T04:38:04.005Z,99.90
2022-09-07T04:40:30.852Z,99.90
2022-09-07T04:42:57.729Z,99.90
2022-09-07T04:45:24.569Z,99.90
2022-09-07T04:47:51.378Z,99.90
2022-09-07T04:50:18.228Z,99.90
2022-09-07T04:52:45.153Z,99.90
2022-09-07T04:55:12.320Z,99.90
2022-09-07T04:57:39.278Z,99.90
2022-09-07T05:00:09.474Z,99.90
2022-09-07T05:02:36.689Z,99.90
2022-09-07T05:05:04.056Z,99.90
2022-09-07T05:07:31.124Z,99.90
2022-09-07T05:09:58.138Z,99.90
2022-09-07T05:12:24.959Z,99.90
2022-09-07T05:14:51.900Z,99.90
2022-09-07T05:17:19.500Z,99.90
2022-09-07T05:19:46.386Z,99.90
2022-09-07T05:22:13.157Z,99.90
2022-09-07T05:24:39.941Z,99.90
2022-09-07T05:27:06.792Z,99.90
2022-09-07T05:32:20.403Z,99.90
2022-09-07T05:34:49.648Z,99.90
2022-09-07T05:37:17.760Z,99.90
2022-09-07T05:39:44.565Z,99.90
2022-09-07T05:42:11.479Z,99.90
2022-09-07T05:44:45.788Z,99.90
2022-09-07T05:47:12.933Z,99.90
2022-09-07T05:49:39.821Z,99.90
2022-09-07T05:52:06.952Z,99.90
2022-09-07T05:54:33.805Z,99.90
2022-09-07T05:57:00.610Z,99.90
2022-09-07T05:59:27.386Z,99.90
2022-09-07T06:01:54.264Z,99.90
2022-09-07T06:04:21.276Z,99.90
2022-09-07T06:07:17.566Z,99.90
2022-09-07T06:09:35.529Z,99.90
2022-09-07T06:12:05.382Z,99.90
2022-09-07T06:14:32.726Z,99.90
2022-09-07T06:16:59.613Z,99.90
2022-09-07T06:19:26.482Z,99.90
2022-09-07T06:21:53.357Z,99.90
2022-09-07T06:24:20.152Z,99.90
2022-09-07T06:26:46.972Z,99.90
2022-09-07T06:29:13.786Z,99.90
2022-09-07T06:34:27.410Z,99.90
2022-09-07T06:36:54.186Z,99.90
2022-09-07T06:39:20.979Z,99.90
2022-09-07T06:42:03.088Z,99.90
2022-09-07T06:44:30.219Z,99.90
2022-09-07T06:47:04.736Z,99.90
2022-09-07T06:49:31.855Z,99.90
2022-09-07T06:51:58.654Z,99.90
2022-09-07T06:57:12.223Z,99.90
2022-09-07T06:59:39.074Z,99.90
2022-09-07T07:02:06.222Z,99.90
2022-09-07T07:04:37.763Z,99.90
2022-09-07T07:07:09.834Z,99.90
2022-09-07T07:09:36.739Z,99.90
2022-09-07T07:12:03.577Z,99.90
2022-09-07T07:14:33.815Z,99.90
2022-09-07T07:17:01.994Z,99.90
2022-09-07T07:19:28.817Z,99.90
2022-09-07T07:24:42.401Z,99.90
2022-09-07T07:27:09.179Z,99.90
2022-09-07T07:29:35.959Z,99.90
2022-09-07T07:32:04.059Z,99.90
2022-09-07T07:34:30.923Z,99.90
2022-09-07T07:36:57.683Z,99.90
2022-09-07T07:42:12.448Z,99.90
2022-09-07T07:44:39.304Z,99.90
2022-09-07T07:47:06.175Z,99.90
2022-09-07T07:49:33.141Z,99.90
2022-09-07T07:54:46.821Z,99.90
2022-09-07T07:57:13.657Z,99.90
2022-09-07T07:59:40.584Z,99.90
2022-09-07T08:02:08.988Z,99.90
2022-09-07T08:04:36.044Z,99.90
2022-09-07T08:07:09.196Z,99.90
2022-09-07T08:09:38.154Z,99.90
2022-09-07T08:12:04.963Z,99.90
2022-09-07T08:14:31.746Z,99.90
2022-09-07T08:16:58.487Z,99.90
2022-09-07T08:19:25.482Z,99.90
2022-09-07T08:21:52.241Z,99.90
2022-09-07T08:24:19.396Z,99.90
2022-09-07T08:26:46.205Z,99.90
2022-09-07T08:29:13.269Z,99.90
2022-09-07T08:31:40.187Z,99.90
2022-09-07T08:34:07.766Z,99.90
2022-09-07T08:36:34.615Z,99.90
2022-09-07T08:39:01.400Z,99.90
2022-09-07T08:41:46.640Z,99.90
2022-09-07T08:44:17.152Z,99.90
2022-09-07T08:46:55.035Z,99.90
2022-09-07T08:49:48.312Z,99.90
2022-09-07T08:52:21.319Z,99.90
2022-09-07T08:54:50.398Z,99.90
2022-09-07T08:57:21.835Z,99.90
2022-09-07T08:59:49.067Z,99.90
2022-09-07T09:02:35.416Z,98.70
2022-09-07T09:05:29.980Z,98.60
2022-09-07T09:07:56.731Z,95.50
2022-09-07T09:10:29.549Z,94.70
2022-09-07T09:13:02.205Z,95.00
2022-09-07T09:15:45.497Z,94.10
2022-09-07T09:18:22.513Z,95.00
2022-09-07T09:21:00.813Z,94.10
2022-09-07T09:23:28.770Z,93.50
2022-09-07T09:25:56.278Z,93.70
2022-09-07T09:28:24.654Z,93.10
2022-09-07T09:30:53.876Z,93.90
2022-09-07T09:33:26.828Z,93.50
2022-09-07T09:35:54.810Z,94.10
2022-09-07T09:38:39.601Z,93.70
2022-09-07T09:41:09.740Z,93.20
2022-09-07T09:43:55.231Z,92.20
2022-09-07T09:46:31.571Z,91.50
2022-09-07T09:49:18.238Z,91.10
2022-09-07T09:54:33.706Z,89.20
2022-09-07T09:57:00.545Z,89.70
2022-09-07T10:05:40.071Z,81.50
2022-09-07T10:08:15.408Z,80.10
2022-09-07T10:11:00.758Z,77.60
2022-09-07T10:13:50.345Z,74.50
2022-09-07T10:16:17.133Z,73.30
2022-09-07T10:18:57.202Z,70.80
2022-09-07T10:21:24.794Z,72.40
2022-09-07T10:24:01.265Z,70.50
2022-09-07T10:26:29.153Z,68.90
2022-09-07T10:29:28.835Z,68.20
2022-09-07T10:31:58.611Z,69.70
2022-09-07T10:34:31.697Z,67.70
2022-09-07T10:37:05.625Z,68.30
2022-09-07T10:39:35.959Z,66.40
2022-09-07T10:42:21.412Z,68.60
2022-09-07T10:44:51.080Z,67.90
2022-09-07T10:47:17.835Z,65.90
2022-09-07T10:52:52.336Z,65.10
2022-09-07T10:55:23.826Z,65.40
2022-09-07T10:57:51.903Z,63.90
2022-09-07T11:00:19.262Z,64.40
2022-09-07T11:05:51.099Z,61.70
2022-09-07T11:08:17.911Z,62.50
2022-09-07T11:10:44.633Z,61.90
2022-09-07T11:13:12.611Z,61.70
2022-09-07T11:15:44.145Z,62.10
2022-09-07T11:18:20.823Z,61.70
2022-09-07T11:20:50.756Z,60.80
2022-09-07T11:23:22.898Z,61.90
2022-09-07T11:25:55.703Z,59.80
2022-09-07T11:28:26.805Z,60.00
2022-09-07T11:31:00.339Z,59.80
2022-09-07T11:33:33.223Z,60.20
2022-09-07T11:36:09.825Z,60.10
2022-09-07T11:38:41.698Z,60.60
2022-09-07T11:41:17.779Z,58.50
2022-09-07T11:43:48.606Z,58.20
2022-09-07T11:46:16.770Z,56.70
2022-09-07T11:48:54.046Z,57.10
2022-09-07T11:51:26.890Z,56.40
2022-09-07T11:53:54.657Z,54.30
2022-09-07T11:56:26.277Z,53.80
2022-09-07T11:59:12.021Z,52.30
2022-09-07T12:01:57.603Z,52.20
2022-09-07T12:04:30.581Z,53.50
2022-09-07T12:07:06.514Z,56.10
2022-09-07T12:09:55.699Z,57.20
2022-09-07T12:12:25.470Z,57.10
2022-09-07T12:15:07.602Z,58.10
2022-09-07T12:17:37.513Z,58.50
2022-09-07T12:20:10.515Z,58.90
2022-09-07T12:22:37.989Z,57.30
2022-09-07T12:25:08.516Z,56.40
2022-09-07T12:27:35.240Z,55.60
2022-09-07T12:30:01.973Z,55.30
2022-09-07T12:33:04.406Z,53.60
2022-09-07T12:35:34.181Z,52.20
2022-09-07T12:38:01.395Z,55.30
2022-09-07T12:40:32.176Z,55.00
2022-09-07T12:43:14.814Z,53.20
2022-09-07T12:45:44.569Z,54.10
2022-09-07T12:48:17.626Z,54.60
2022-09-07T12:50:44.372Z,54.10
2022-09-07T12:53:13.927Z,55.00
2022-09-07T12:58:49.198Z,54.30
2022-09-07T13:01:21.885Z,53.50
2022-09-07T13:04:07.517Z,53.50
2022-09-07T13:09:33.562Z,52.90
2022-09-07T13:12:00.541Z,51.90
2022-09-07T13:14:28.070Z,52.50
2022-09-07T13:17:16.789Z,55.10
2022-09-07T13:19:47.375Z,56.40
2022-09-07T13:22:29.169Z,57.80
2022-09-07T13:24:57.006Z,59.20
2022-09-07T13:27:24.999Z,61.20
2022-09-07T13:29:55.306Z,60.70
2022-09-07T13:35:18.381Z,61.60
2022-09-07T13:37:51.262Z,61.60
2022-09-07T13:40:19.459Z,62.70
2022-09-07T13:42:46.206Z,60.00
2022-09-07T13:45:29.859Z,60.00
2022-09-07T13:48:02.479Z,62.50
2022-09-07T13:50:29.216Z,62.50
2022-09-07T13:53:04.812Z,62.50
2022-09-07T13:55:34.082Z,63.60
2022-09-07T13:58:04.387Z,62.90
2022-09-07T14:00:31.325Z,64.20
2022-09-07T14:03:00.355Z,63.20
2022-09-07T14:05:27.149Z,65.20
2022-09-07T14:07:53.893Z,64.50
2022-09-07T14:10:21.689Z,65.80
2022-09-07T14:12:49.439Z,64.30
2022-09-07T14:15:20.189Z,64.10
2022-09-07T14:17:47.082Z,65.10
2022-09-07T14:20:14.272Z,65.30
2022-09-07T14:22:41.039Z,65.20
2022-09-07T14:25:08.339Z,65.20
2022-09-07T14:27:44.489Z,63.50
2022-09-07T14:30:15.358Z,64.80
2022-09-07T14:32:42.590Z,64.70
2022-09-07T14:35:12.919Z,64.40
2022-09-07T14:37:39.668Z,64.50
2022-09-07T14:40:07.236Z,65.10
2022-09-07T14:42:34.479Z,64.60
2022-09-07T14:45:37.776Z,64.70
2022-09-07T14:48:13.640Z,66.60
2022-09-07T14:50:41.460Z,66.10
2022-09-07T14:56:02.249Z,67.60
2022-09-07T14:58:32.565Z,67.70
2022-09-07T15:03:57.362Z,67.10
2022-09-07T15:09:27.961Z,66.60
2022-09-07T15:12:13.438Z,67.30
2022-09-07T15:14:40.185Z,66.50
2022-09-07T15:19:53.753Z,65.80
2022-09-07T15:22:22.138Z,66.50
2022-09-07T15:24:49.304Z,67.20
2022-09-07T15:27:34.252Z,67.80
2022-09-07T15:30:00.987Z,68.20
2022-09-07T15:32:27.809Z,67.90
2022-09-07T15:34:54.599Z,67.90
2022-09-07T15:40:18.393Z,67.90
2022-09-07T15:43:01.448Z,67.50
2022-09-07T15:45:29.903Z,67.80
2022-09-07T15:47:56.964Z,69.50
2022-09-07T15:50:23.785Z,69.70
2022-09-07T15:52:50.724Z,71.50
2022-09-07T15:55:17.907Z,71.00
2022-09-07T15:57:49.222Z,71.20
2022-09-07T16:00:18.329Z,72.10
2022-09-07T16:05:33.637Z,71.00
2022-09-07T16:10:53.502Z,71.10
2022-09-07T16:13:20.776Z,71.20
2022-09-07T16:15:47.908Z,71.90
2022-09-07T16:18:16.809Z,71.60
2022-09-07T16:20:44.079Z,71.40
2022-09-07T16:23:15.221Z,72.10
2022-09-07T16:25:50.337Z,70.90
2022-09-07T16:28:17.091Z,72.00
2022-09-07T16:30:43.898Z,71.40
2022-09-07T16:33:10.688Z,72.80
2022-09-07T16:35:37.488Z,76.00
2022-09-07T16:40:51.192Z,79.50
2022-09-07T16:43:17.968Z,80.70
2022-09-07T16:48:32.134Z,81.50
2022-09-07T16:51:01.969Z,83.00
2022-09-07T16:53:29.632Z,84.40
2022-09-07T16:56:08.223Z,85.70
2022-09-07T16:58:36.460Z,87.00
2022-09-07T17:01:04.264Z,88.90
2022-09-07T17:03:31.118Z,90.00
2022-09-07T17:05:59.823Z,90.40
2022-09-07T17:08:26.816Z,90.50
2022-09-07T17:11:03.659Z,90.60
2022-09-07T17:13:30.913Z,91.00
2022-09-07T17:16:04.408Z,91.60
2022-09-07T17:21:19.575Z,92.80
2022-09-07T17:23:54.300Z,92.90
2022-09-07T17:26:22.556Z,93.30
2022-09-07T17:28:50.005Z,93.60
2022-09-07T17:34:07.385Z,94.20
2022-09-07T17:36:34.592Z,94.70
2022-09-07T17:39:18.521Z,95.10
2022-09-07T17:41:46.543Z,95.20
2022-09-07T17:44:13.278Z,95.40
2022-09-07T17:46:40.026Z,95.70
2022-09-07T17:49:11.229Z,96.00
2022-09-07T17:51:38.152Z,96.50
2022-09-07T17:54:12.647Z,97.00
2022-09-07T17:56:40.218Z,97.50
2022-09-07T18:01:54.238Z,98.30
2022-09-07T18:04:21.412Z,98.50
2022-09-07T18:06:48.370Z,98.40
2022-09-07T18:09:15.116Z,98.30
2022-09-07T18:11:45.462Z,98.00
2022-09-07T18:14:14.606Z,98.10
2022-09-07T18:16:41.748Z,98.30
2022-09-07T18:19:08.720Z,98.80
2022-09-07T18:21:36.122Z,99.20
2022-09-07T18:24:07.668Z,99.70
2022-09-07T18:26:35.368Z,99.90
2022-09-07T18:29:04.150Z,99.90
2022-09-07T18:31:31.304Z,99.90
2022-09-07T18:33:58.413Z,99.90
2022-09-07T18:36:25.508Z,99.90
2022-09-07T18:38:52.358Z,99.90
2022-09-07T18:41:19.094Z,99.90
2022-09-07T18:43:48.271Z,99.90
2022-09-07T18:46:16.091Z,99.90
2022-09-07T18:48:42.961Z,99.90
2022-09-07T18:51:09.966Z,99.90
2022-09-07T18:53:37.377Z,99.90
2022-09-07T18:56:04.986Z,99.90
2022-09-07T18:58:31.914Z,99.90
2022-09-07T19:01:02.845Z,99.90
2022-09-07T19:03:29.666Z,99.90
2022-09-07T19:05:57.025Z,99.90
2022-09-07T19:08:24.085Z,99.90
2022-09-07T19:10:51.018Z,99.90
2022-09-07T19:13:17.824Z,99.90
2022-09-07T19:15:44.723Z,99.90
2022-09-07T19:18:11.535Z,99.90
2022-09-07T19:20:38.416Z,99.90
2022-09-07T19:23:05.573Z,99.90
2022-09-07T19:25:32.478Z,99.90
2022-09-07T19:27:59.472Z,99.90
2022-09-07T19:30:26.294Z,99.90
2022-09-07T19:32:53.055Z,99.90
2022-09-07T19:35:20.253Z,99.90
2022-09-07T19:37:48.071Z,99.90
2022-09-07T19:40:19.093Z,99.90
2022-09-07T19:42:46.265Z,99.90
2022-09-07T19:45:16.307Z,99.90
2022-09-07T19:47:43.120Z,99.90
2022-09-07T19:50:10.037Z,99.90
2022-09-07T19:52:36.809Z,99.90
2022-09-07T19:55:04.048Z,99.90
2022-09-07T19:57:30.876Z,99.90
2022-09-07T19:59:58.006Z,99.90
2022-09-07T20:02:24.857Z,99.90
2022-09-07T20:04:51.820Z,99.90
2022-09-07T20:07:18.565Z,99.90
2022-09-07T20:09:45.319Z,99.90
2022-09-07T20:12:12.065Z,99.90
2022-09-07T20:14:38.829Z,99.90
2022-09-07T20:17:05.615Z,99.90
2022-09-07T20:19:32.418Z,99.90
2022-09-07T20:21:59.150Z,99.90
2022-09-07T20:24:25.878Z,99.90
2022-09-07T20:26:52.781Z,99.90
2022-09-07T20:29:28.644Z,99.90
2022-09-07T20:31:56.843Z,99.90
2022-09-07T20:34:23.636Z,99.90
2022-09-07T20:36:50.490Z,99.90
2022-09-07T20:39:17.398Z,99.90
2022-09-07T20:41:44.526Z,99.90
2022-09-07T20:44:11.381Z,99.90
2022-09-07T20:46:38.353Z,99.90
2022-09-07T20:49:05.368Z,99.90
2022-09-07T20:51:32.188Z,99.90
2022-09-07T20:53:59.127Z,99.90
2022-09-07T20:56:26.560Z,99.90
2022-09-07T20:58:54.117Z,99.90
2022-09-07T21:01:21.393Z,99.90
2022-09-07T21:03:49.778Z,99.90
2022-09-07T21:06:16.680Z,99.90
2022-09-07T21:08:43.706Z,99.90
2022-09-07T21:11:11.292Z,99.90
2022-09-07T21:13:38.100Z,99.90
2022-09-07T21:16:06.807Z,99.90
2022-09-07T21:18:33.809Z,99.90
2022-09-07T21:21:19.391Z,99.90
2022-09-07T21:23:46.966Z,99.90
2022-09-07T21:26:13.712Z,99.90
2022-09-07T21:28:40.449Z,99.90
2022-09-07T21:31:07.753Z,99.90
2022-09-07T21:33:35.328Z,99.90
2022-09-07T21:36:05.536Z,99.90
2022-09-07T21:38:32.347Z,99.90
2022-09-07T21:40:59.931Z,99.90
2022-09-07T21:43:26.724Z,99.90
2022-09-07T21:45:53.484Z,99.90
2022-09-07T21:48:20.600Z,99.90
2022-09-07T21:50:47.367Z,99.90
2022-09-07T21:53:14.210Z,99.90
2022-09-07T21:55:40.895Z,99.90
2022-09-07T21:58:07.708Z,99.90
2022-09-07T22:00:34.592Z,99.90
2022-09-07T22:03:01.357Z,99.90
2022-09-07T22:05:28.145Z,99.90
2022-09-07T22:07:54.893Z,99.90
2022-09-07T22:10:21.759Z,99.90
2022-09-07T22:12:48.811Z,99.90
2022-09-07T22:15:15.565Z,99.90
2022-09-07T22:17:46.162Z,99.90
2022-09-07T22:20:13.253Z,99.90
2022-09-07T22:22:40.043Z,99.90
2022-09-07T22:25:06.947Z,99.90
2022-09-07T22:27:33.670Z,99.90
2022-09-07T22:30:00.399Z,99.90
2022-09-07T22:32:27.734Z,99.90
2022-09-07T22:34:54.548Z,99.90
2022-09-07T22:37:21.289Z,99.90
2022-09-07T22:39:48.033Z,99.90
2022-09-07T22:42:14.792Z,99.90
2022-09-07T22:44:41.514Z,99.90
2022-09-07T22:47:09.236Z,99.90
2022-09-07T22:49:36.056Z,99.90
2022-09-07T22:52:02.913Z,99.90
2022-09-07T22:54:29.847Z,99.90
2022-09-07T22:56:56.681Z,99.90
2022-09-07T22:59:23.484Z,99.90
2022-09-07T23:01:50.237Z,99.90
2022-09-07T23:04:17.184Z,99.90
2022-09-07T23:06:44.053Z,99.90
2022-09-07T23:09:11.621Z,99.90
2022-09-07T23:11:38.533Z,99.90
2022-09-07T23:14:06.774Z,99.90
2022-09-07T23:16:33.543Z,99.90
2022-09-07T23:19:00.423Z,99.90
2022-09-07T23:21:27.400Z,99.90
2022-09-07T23:23:54.860Z,99.90
2022-09-07T23:26:21.826Z,99.90
2022-09-07T23:28:52.581Z,99.90
2022-09-07T23:31:19.642Z,99.90
2022-09-07T23:33:46.564Z,99.90
2022-09-07T23:36:13.568Z,99.90
2022-09-07T23:38:40.283Z,99.90
2022-09-07T23:41:07.027Z,99.90
2022-09-07T23:43:33.903Z,99.90
2022-09-07T23:46:00.832Z,99.90
2022-09-07T23:48:27.782Z,99.90
2022-09-07T23:50:54.585Z,99.90
2022-09-07T23:53:22.098Z,99.90
2022-09-07T23:55:52.040Z,99.90
2022-09-07T23:58:19.238Z,99.90
